Alaska B737 at Anchorage on Dec 19th 2018, wing tip strike on landing

Last Update: December 20, 2018 / 20:41:33 GMT/Zulu time

Bookmark this article
Incident Facts

Date of incident
Dec 19, 2018

Classification
Incident

Flight number
AS-7015

Aircraft Registration
N626AS

Aircraft Type
Boeing 737-700

ICAO Type Designator
B737

Airport ICAO Code
PANC

An Alaska Airlines Boeing 737-700, registration N626AS performing flight AS-7015 from Barrow,AK to Anchorage,AK (USA), landed on Anchorage's runway 07L at 15:19L (00:19Z Dec 20th) but struck a wing tip onto the runway surface. The aircraft rolled out without further incident and taxied to the apron maintaining routine communication.

The FAA reported, the aircraft "struck wingtip on runway" causing unknown damage.

The occurrence aircraft is still on the ground in Anchorage about 20 hours after landing.

Metars:
PANC 200153Z 00000KT 10SM FEW004 BKN085 BKN150 M08/M11 A2941 RMK AO2 SLP962 VIRGA SW T10831111=
PANC 200053Z 35004KT 10SM FEW004 BKN085 BKN150 M08/M11 A2939 RMK AO2 SLP956 VIRGA SE-SW T10781106=
PANC 200023Z 36008KT 10SM FEW004 BKN070 BKN095 M07/M11 A2939 RMK AO2 VIRGA SE-SW T10721106=
PANC 192353Z 36009KT 10SM FEW025 BKN050 BKN120 M07/M10 A2939 RMK AO2 SLP955 VIRGA ALQDS 4/013 60002 T10671100 11061 21083 50000=
PANC 192253Z 01006KT 10SM FEW025 BKN044 BKN120 M07/M09 A2939 RMK AO2 SNB2159E13 SLP956 VIRGA ALQDS P0000 T10671094 $=
PANC 192153Z 35005KT 10SM SCT025 BKN044 OVC055 M07/M09 A2939 RMK AO2 SNE48 SLP956 P0000 T10671089=
PANC 192140Z 34003KT 10SM -SN SCT025 BKN045 OVC055 M07/M09 A2939 RMK AO2 P0000 T10671089=
PANC 192122Z 01007KT 2SM -SN BR SCT015 BKN027 OVC060 M07/M09 A2939 RMK AO2 P0000 T10671089=
PANC 192107Z 02006KT 1 1/2SM R07R/5500VP6000FT -SN BR BKN015 OVC038 M07/M09 A2939 RMK AO2 P0000 T10721094=
PANC 192053Z 36005KT 3/4SM R07R/P6000FT -SN BR VV019 M07/M09 A2939 RMK AO2 SLP955 P0001 60002 T10671089 51010=
Aircraft Registration Data
Registration mark
N626AS
Country of Registration
United States
Date of Registration
Kmfikbfkcqiqi db Subscribe to unlock
Manufacturer
BOEING
Aircraft Model / Type
737-790
Number of Seats
ICAO Aircraft Type
B737
Year of Manufacture
Serial Number
Aircraft Address / Mode S Code (HEX)
Engine Count
Engine Manufacturer
Engine Model
KdcncAdkebgq Subscribe to unlock
Engine Type
Main Owner
L eclmgemffqmAbplcmfmddmcipjmfbfiben enebhlfjkcldlmjbh Algh hdgkhpglhggebidedhbllbfepnqgqhbnclphegkdqg c Subscribe to unlock
Incident Facts

Date of incident
Dec 19, 2018

Classification
Incident

Flight number
AS-7015

Aircraft Registration
N626AS

Aircraft Type
Boeing 737-700

ICAO Type Designator
B737

Airport ICAO Code
PANC

This article is published under license from Avherald.com. © of text by Avherald.com.
Article source

You can read 2 more free articles without a subscription.

Subscribe now and continue reading without any limits!

Are you a subscriber? Login
Subscribe

Read unlimited articles and receive our daily update briefing. Gain better insights into what is happening in commercial aviation safety.

Send tip

Support AeroInside by sending a small tip amount.

Related articles

Newest articles

Subscribe today

Are you researching aviation incidents? Get access to AeroInside Insights, unlimited read access and receive the daily newsletter.

Pick your plan and subscribe

Partner

Blockaviation logo

A new way to document and demonstrate airworthiness compliance and aircraft value. Find out more.

ELITE Logo

ELITE Simulation Solutions is a leading global provider of Flight Simulation Training Devices, IFR training software as well as flight controls and related services. Find out more.

Blue Altitude Logo

Your regulation partner, specialists in aviation safety and compliance; providing training, auditing, and consultancy services. Find out more.

AeroInside Blog
Popular aircraft
Airbus A320
Boeing 737-800
Boeing 737-800 MAX
Popular airlines
American Airlines
United
Delta
Air Canada
Lufthansa
British Airways